sensor_id;sensor_type;location;lat;lon;timestamp;pressure;altitude;pressure_sealevel;temperature;humidity
70488;BME280;57976;48.174;16.370;2023-07-20T00:01:37;98584.71;;;23.09;58.43
70488;BME280;57976;48.174;16.370;2023-07-20T00:03:42;98587.13;;;23.08;58.37
70488;BME280;57976;48.174;16.370;2023-07-20T00:05:46;98586.77;;;23.07;58.22
70488;BME280;57976;48.174;16.370;2023-07-20T00:07:51;98580.52;;;23.06;58.14
70488;BME280;57976;48.174;16.370;2023-07-20T00:09:56;98571.70;;;23.05;58.23
70488;BME280;57976;48.174;16.370;2023-07-20T00:12:01;98566.70;;;23.07;58.19
70488;BME280;57976;48.174;16.370;2023-07-20T00:14:06;98561.81;;;23.10;58.09
70488;BME280;57976;48.174;16.370;2023-07-20T00:16:11;98556.02;;;23.09;57.99
70488;BME280;57976;48.174;16.370;2023-07-20T00:18:16;98561.80;;;23.11;58.17
70488;BME280;57976;48.174;16.370;2023-07-20T00:20:25;98560.98;;;23.11;58.24
70488;BME280;57976;48.174;16.370;2023-07-20T00:22:29;98563.84;;;23.09;57.99
70488;BME280;57976;48.174;16.370;2023-07-20T00:24:35;98570.37;;;23.12;57.92
70488;BME280;57976;48.174;16.370;2023-07-20T00:26:40;98577.55;;;23.14;57.67
70488;BME280;57976;48.174;16.370;2023-07-20T00:28:51;98583.92;;;23.16;57.70
70488;BME280;57976;48.174;16.370;2023-07-20T00:30:56;98586.93;;;23.18;57.60
70488;BME280;57976;48.174;16.370;2023-07-20T00:33:01;98585.70;;;23.20;57.42
70488;BME280;57976;48.174;16.370;2023-07-20T00:35:06;98588.45;;;23.22;57.52
70488;BME280;57976;48.174;16.370;2023-07-20T00:37:11;98592.64;;;23.23;57.44
70488;BME280;57976;48.174;16.370;2023-07-20T00:39:16;98600.06;;;23.25;57.36
70488;BME280;57976;48.174;16.370;2023-07-20T00:41:21;98598.15;;;23.26;57.54
70488;BME280;57976;48.174;16.370;2023-07-20T00:43:26;98599.55;;;23.29;57.70
70488;BME280;57976;48.174;16.370;2023-07-20T00:45:32;98604.27;;;23.30;57.58
70488;BME280;57976;48.174;16.370;2023-07-20T00:47:39;98606.50;;;23.29;57.69
70488;BME280;57976;48.174;16.370;2023-07-20T00:49:47;98605.50;;;23.30;58.03
70488;BME280;57976;48.174;16.370;2023-07-20T00:51:52;98606.59;;;23.31;58.31
70488;BME280;57976;48.174;16.370;2023-07-20T00:53:57;98618.25;;;23.32;58.86
70488;BME280;57976;48.174;16.370;2023-07-20T00:56:02;98621.73;;;23.33;58.79
70488;BME280;57976;48.174;16.370;2023-07-20T00:58:07;98621.52;;;23.33;58.90
70488;BME280;57976;48.174;16.370;2023-07-20T01:00:13;98617.75;;;23.34;59.29
70488;BME280;57976;48.174;16.370;2023-07-20T01:02:18;98613.36;;;23.34;59.34
70488;BME280;57976;48.174;16.370;2023-07-20T01:04:23;98612.84;;;23.35;59.48
70488;BME280;57976;48.174;16.370;2023-07-20T01:06:39;98604.44;;;23.36;59.66
70488;BME280;57976;48.174;16.370;2023-07-20T01:08:50;98600.45;;;23.38;59.63
70488;BME280;57976;48.174;16.370;2023-07-20T01:11:16;98595.70;;;23.41;59.35
70488;BME280;57976;48.174;16.370;2023-07-20T01:13:21;98588.95;;;23.45;59.06
70488;BME280;57976;48.174;16.370;2023-07-20T01:15:26;98578.79;;;23.50;58.79
70488;BME280;57976;48.174;16.370;2023-07-20T01:17:31;98576.03;;;23.54;58.50
70488;BME280;57976;48.174;16.370;2023-07-20T01:19:36;98577.12;;;23.57;58.19
70488;BME280;57976;48.174;16.370;2023-07-20T01:21:45;98567.70;;;23.60;58.02
70488;BME280;57976;48.174;16.370;2023-07-20T01:24:16;98583.27;;;23.61;58.03
70488;BME280;57976;48.174;16.370;2023-07-20T01:26:32;98587.52;;;23.64;58.23
70488;BME280;57976;48.174;16.370;2023-07-20T01:29:07;98585.45;;;23.67;58.10
70488;BME280;57976;48.174;16.370;2023-07-20T01:31:19;98583.76;;;23.67;58.04
70488;BME280;57976;48.174;16.370;2023-07-20T01:33:26;98581.38;;;23.67;57.98
70488;BME280;57976;48.174;16.370;2023-07-20T01:35:33;98585.71;;;23.67;57.93
70488;BME280;57976;48.174;16.370;2023-07-20T01:37:39;98579.65;;;23.68;57.64
70488;BME280;57976;48.174;16.370;2023-07-20T01:39:45;98579.06;;;23.68;57.48
70488;BME280;57976;48.174;16.370;2023-07-20T01:41:50;98573.73;;;23.68;57.33
70488;BME280;57976;48.174;16.370;2023-07-20T01:43:58;98578.98;;;23.67;57.19
70488;BME280;57976;48.174;16.370;2023-07-20T01:46:04;98588.70;;;23.65;57.21
70488;BME280;57976;48.174;16.370;2023-07-20T01:48:08;98587.02;;;23.65;57.25
70488;BME280;57976;48.174;16.370;2023-07-20T01:50:13;98585.64;;;23.63;57.27
70488;BME280;57976;48.174;16.370;2023-07-20T01:52:18;98590.41;;;23.61;57.59
70488;BME280;57976;48.174;16.370;2023-07-20T01:54:23;98587.95;;;23.59;57.70
70488;BME280;57976;48.174;16.370;2023-07-20T01:56:28;98585.09;;;23.58;57.95
70488;BME280;57976;48.174;16.370;2023-07-20T01:58:32;98583.20;;;23.57;57.94
70488;BME280;57976;48.174;16.370;2023-07-20T02:00:39;98582.32;;;23.55;58.11
70488;BME280;57976;48.174;16.370;2023-07-20T02:02:44;98575.87;;;23.54;58.40
70488;BME280;57976;48.174;16.370;2023-07-20T02:04:49;98582.64;;;23.53;58.59
70488;BME280;57976;48.174;16.370;2023-07-20T02:06:53;98591.27;;;23.51;58.62
70488;BME280;57976;48.174;16.370;2023-07-20T02:08:59;98593.45;;;23.48;58.64
70488;BME280;57976;48.174;16.370;2023-07-20T02:11:07;98594.66;;;23.44;59.09
70488;BME280;57976;48.174;16.370;2023-07-20T02:13:11;98597.70;;;23.43;59.14
70488;BME280;57976;48.174;16.370;2023-07-20T02:15:16;98601.80;;;23.41;59.38
70488;BME280;57976;48.174;16.370;2023-07-20T02:17:21;98604.95;;;23.41;59.74
70488;BME280;57976;48.174;16.370;2023-07-20T02:19:27;98603.52;;;23.39;59.83
70488;BME280;57976;48.174;16.370;2023-07-20T02:21:31;98603.06;;;23.38;59.78
70488;BME280;57976;48.174;16.370;2023-07-20T02:23:36;98614.40;;;23.36;60.19
70488;BME280;57976;48.174;16.370;2023-07-20T02:25:41;98616.06;;;23.34;60.47
70488;BME280;57976;48.174;16.370;2023-07-20T02:27:49;98613.44;;;23.33;60.55
70488;BME280;57976;48.174;16.370;2023-07-20T02:29:54;98617.40;;;23.31;60.80
70488;BME280;57976;48.174;16.370;2023-07-20T02:31:58;98617.16;;;23.27;61.06
70488;BME280;57976;48.174;16.370;2023-07-20T02:34:05;98622.67;;;23.26;60.98
70488;BME280;57976;48.174;16.370;2023-07-20T02:36:13;98631.08;;;23.26;60.99
70488;BME280;57976;48.174;16.370;2023-07-20T02:38:18;98629.27;;;23.24;61.02
70488;BME280;57976;48.174;16.370;2023-07-20T02:40:23;98630.20;;;23.24;61.18
70488;BME280;57976;48.174;16.370;2023-07-20T02:42:27;98630.55;;;23.22;61.15
70488;BME280;57976;48.174;16.370;2023-07-20T02:44:32;98638.43;;;23.20;61.24
70488;BME280;57976;48.174;16.370;2023-07-20T02:46:37;98634.16;;;23.19;61.41
70488;BME280;57976;48.174;16.370;2023-07-20T02:48:42;98635.17;;;23.17;61.42
70488;BME280;57976;48.174;16.370;2023-07-20T02:50:50;98641.75;;;23.14;61.64
70488;BME280;57976;48.174;16.370;2023-07-20T02:52:54;98648.98;;;23.11;61.71
70488;BME280;57976;48.174;16.370;2023-07-20T02:54:59;98656.91;;;23.07;61.70
70488;BME280;57976;48.174;16.370;2023-07-20T02:57:05;98665.05;;;23.06;61.86
70488;BME280;57976;48.174;16.370;2023-07-20T02:59:09;98661.98;;;23.04;61.82
70488;BME280;57976;48.174;16.370;2023-07-20T03:01:14;98663.33;;;23.02;62.02
70488;BME280;57976;48.174;16.370;2023-07-20T03:03:19;98666.89;;;23.00;62.11
70488;BME280;57976;48.174;16.370;2023-07-20T03:05:24;98664.56;;;22.99;62.06
70488;BME280;57976;48.174;16.370;2023-07-20T03:07:29;98668.33;;;22.97;62.15
70488;BME280;57976;48.174;16.370;2023-07-20T03:09:34;98671.39;;;22.97;62.30
70488;BME280;57976;48.174;16.370;2023-07-20T03:11:39;98677.67;;;22.98;62.08
70488;BME280;57976;48.174;16.370;2023-07-20T03:13:44;98677.42;;;22.97;62.22
70488;BME280;57976;48.174;16.370;2023-07-20T03:15:50;98684.34;;;22.96;62.10
70488;BME280;57976;48.174;16.370;2023-07-20T03:17:59;98691.36;;;22.95;62.25
70488;BME280;57976;48.174;16.370;2023-07-20T03:20:07;98690.61;;;22.95;62.00
70488;BME280;57976;48.174;16.370;2023-07-20T03:22:12;98698.13;;;22.93;61.97
70488;BME280;57976;48.174;16.370;2023-07-20T03:24:17;98699.77;;;22.93;61.70
70488;BME280;57976;48.174;16.370;2023-07-20T03:26:23;98698.11;;;22.92;61.65
70488;BME280;57976;48.174;16.370;2023-07-20T03:28:28;98696.73;;;22.92;61.40
70488;BME280;57976;48.174;16.370;2023-07-20T03:30:34;98697.66;;;22.93;61.23
70488;BME280;57976;48.174;16.370;2023-07-20T03:32:39;98697.98;;;22.92;61.10
70488;BME280;57976;48.174;16.370;2023-07-20T03:34:44;98700.17;;;22.92;61.04
70488;BME280;57976;48.174;16.370;2023-07-20T03:36:51;98701.79;;;22.92;60.89
70488;BME280;57976;48.174;16.370;2023-07-20T03:38:56;98712.15;;;22.94;60.78
70488;BME280;57976;48.174;16.370;2023-07-20T03:41:01;98714.73;;;22.95;60.79
70488;BME280;57976;48.174;16.370;2023-07-20T03:43:06;98721.98;;;22.97;60.67
70488;BME280;57976;48.174;16.370;2023-07-20T03:45:11;98724.44;;;22.99;60.57
70488;BME280;57976;48.174;16.370;2023-07-20T03:47:16;98730.67;;;23.01;60.60
70488;BME280;57976;48.174;16.370;2023-07-20T03:49:21;98735.27;;;23.03;60.59
70488;BME280;57976;48.174;16.370;2023-07-20T03:51:26;98731.99;;;23.03;60.67
70488;BME280;57976;48.174;16.370;2023-07-20T03:53:31;98731.14;;;23.06;60.64
70488;BME280;57976;48.174;16.370;2023-07-20T03:55:36;98727.61;;;23.09;60.64
70488;BME280;57976;48.174;16.370;2023-07-20T03:57:41;98728.04;;;23.12;60.82
70488;BME280;57976;48.174;16.370;2023-07-20T03:59:47;98731.06;;;23.14;60.78
70488;BME280;57976;48.174;16.370;2023-07-20T04:01:52;98729.80;;;23.14;60.89
70488;BME280;57976;48.174;16.370;2023-07-20T04:03:57;98727.65;;;23.15;60.98
70488;BME280;57976;48.174;16.370;2023-07-20T04:06:02;98734.86;;;23.17;60.94
70488;BME280;57976;48.174;16.370;2023-07-20T04:08:07;98736.90;;;23.19;61.01
70488;BME280;57976;48.174;16.370;2023-07-20T04:10:12;98738.52;;;23.20;61.10
70488;BME280;57976;48.174;16.370;2023-07-20T04:12:17;98740.48;;;23.22;61.34
70488;BME280;57976;48.174;16.370;2023-07-20T04:14:22;98749.17;;;23.26;61.13
70488;BME280;57976;48.174;16.370;2023-07-20T04:16:26;98756.38;;;23.28;61.17
70488;BME280;57976;48.174;16.370;2023-07-20T04:18:31;98754.73;;;23.29;61.21
70488;BME280;57976;48.174;16.370;2023-07-20T04:20:36;98756.34;;;23.29;61.32
70488;BME280;57976;48.174;16.370;2023-07-20T04:22:41;98768.69;;;23.30;61.68
70488;BME280;57976;48.174;16.370;2023-07-20T04:24:51;98774.59;;;23.31;61.78
70488;BME280;57976;48.174;16.370;2023-07-20T04:26:56;98774.43;;;23.31;62.06
70488;BME280;57976;48.174;16.370;2023-07-20T04:29:00;98775.48;;;23.30;62.40
70488;BME280;57976;48.174;16.370;2023-07-20T04:31:15;98771.81;;;23.27;62.68
70488;BME280;57976;48.174;16.370;2023-07-20T04:33:21;98778.52;;;23.27;62.84
70488;BME280;57976;48.174;16.370;2023-07-20T04:35:49;98776.79;;;23.26;63.16
70488;BME280;57976;48.174;16.370;2023-07-20T04:37:56;98775.18;;;23.25;62.97
70488;BME280;57976;48.174;16.370;2023-07-20T04:40:04;98781.71;;;23.27;63.26
70488;BME280;57976;48.174;16.370;2023-07-20T04:42:09;98786.73;;;23.26;63.71
70488;BME280;57976;48.174;16.370;2023-07-20T04:44:14;98782.64;;;23.21;63.82
70488;BME280;57976;48.174;16.370;2023-07-20T04:46:20;98783.48;;;23.20;64.05
70488;BME280;57976;48.174;16.370;2023-07-20T04:48:27;98784.80;;;23.18;64.53
70488;BME280;57976;48.174;16.370;2023-07-20T04:50:32;98772.70;;;23.14;64.49
70488;BME280;57976;48.174;16.370;2023-07-20T04:52:37;98773.99;;;23.11;64.94
70488;BME280;57976;48.174;16.370;2023-07-20T04:54:49;98775.24;;;23.11;65.31
70488;BME280;57976;48.174;16.370;2023-07-20T04:56:53;98780.85;;;23.10;65.30
70488;BME280;57976;48.174;16.370;2023-07-20T04:58:59;98782.31;;;23.11;65.71
70488;BME280;57976;48.174;16.370;2023-07-20T05:01:04;98785.80;;;23.11;65.75
70488;BME280;57976;48.174;16.370;2023-07-20T05:03:12;98783.70;;;23.09;65.98
70488;BME280;57976;48.174;16.370;2023-07-20T05:05:17;98780.52;;;23.11;65.79
70488;BME280;57976;48.174;16.370;2023-07-20T05:07:22;98783.67;;;23.17;65.82
70488;BME280;57976;48.174;16.370;2023-07-20T05:09:27;98781.95;;;23.23;65.61
70488;BME280;57976;48.174;16.370;2023-07-20T05:11:32;98783.14;;;23.27;65.62
70488;BME280;57976;48.174;16.370;2023-07-20T05:13:37;98789.42;;;23.31;65.37
70488;BME280;57976;48.174;16.370;2023-07-20T05:15:42;98793.05;;;23.34;65.46
70488;BME280;57976;48.174;16.370;2023-07-20T05:17:50;98791.52;;;23.35;65.36
70488;BME280;57976;48.174;16.370;2023-07-20T05:19:55;98793.57;;;23.36;65.19
70488;BME280;57976;48.174;16.370;2023-07-20T05:22:00;98794.05;;;23.40;65.30
70488;BME280;57976;48.174;16.370;2023-07-20T05:24:06;98794.86;;;23.43;65.22
70488;BME280;57976;48.174;16.370;2023-07-20T05:26:11;98796.14;;;23.45;65.00
70488;BME280;57976;48.174;16.370;2023-07-20T05:28:16;98803.38;;;23.45;65.03
70488;BME280;57976;48.174;16.370;2023-07-20T05:30:23;98801.34;;;23.43;64.87
70488;BME280;57976;48.174;16.370;2023-07-20T05:32:28;98794.89;;;23.41;64.68
70488;BME280;57976;48.174;16.370;2023-07-20T05:34:36;98796.35;;;23.42;64.46
70488;BME280;57976;48.174;16.370;2023-07-20T05:36:40;98798.33;;;23.41;64.42
70488;BME280;57976;48.174;16.370;2023-07-20T05:38:45;98799.66;;;23.44;64.59
70488;BME280;57976;48.174;16.370;2023-07-20T05:40:50;98797.66;;;23.49;64.84
70488;BME280;57976;48.174;16.370;2023-07-20T05:42:55;98796.52;;;23.58;64.38
70488;BME280;57976;48.174;16.370;2023-07-20T05:44:59;98802.84;;;23.64;64.21
70488;BME280;57976;48.174;16.370;2023-07-20T05:47:05;98803.83;;;23.69;64.13
70488;BME280;57976;48.174;16.370;2023-07-20T05:49:10;98811.89;;;23.75;64.11
70488;BME280;57976;48.174;16.370;2023-07-20T05:51:15;98808.32;;;23.77;63.94
70488;BME280;57976;48.174;16.370;2023-07-20T05:53:20;98800.63;;;23.75;63.94
70488;BME280;57976;48.174;16.370;2023-07-20T05:55:28;98800.40;;;23.79;64.10
70488;BME280;57976;48.174;16.370;2023-07-20T05:57:32;98805.23;;;23.85;63.58
70488;BME280;57976;48.174;16.370;2023-07-20T05:59:37;98812.17;;;23.87;63.32
70488;BME280;57976;48.174;16.370;2023-07-20T06:01:42;98805.91;;;23.87;63.13
70488;BME280;57976;48.174;16.370;2023-07-20T06:03:47;98800.27;;;23.86;62.62
70488;BME280;57976;48.174;16.370;2023-07-20T06:05:52;98802.40;;;23.89;62.81
70488;BME280;57976;48.174;16.370;2023-07-20T06:08:02;98803.35;;;23.93;62.49
70488;BME280;57976;48.174;16.370;2023-07-20T06:10:08;98810.42;;;23.95;62.70
70488;BME280;57976;48.174;16.370;2023-07-20T06:12:13;98813.04;;;23.99;62.64
70488;BME280;57976;48.174;16.370;2023-07-20T06:14:17;98811.59;;;24.01;62.15
70488;BME280;57976;48.174;16.370;2023-07-20T06:16:22;98810.35;;;24.00;62.05
70488;BME280;57976;48.174;16.370;2023-07-20T06:18:27;98812.23;;;23.98;62.42
70488;BME280;57976;48.174;16.370;2023-07-20T06:20:32;98812.38;;;24.02;62.49
70488;BME280;57976;48.174;16.370;2023-07-20T06:22:37;98810.27;;;24.04;62.14
70488;BME280;57976;48.174;16.370;2023-07-20T06:24:42;98813.20;;;24.05;61.99
70488;BME280;57976;48.174;16.370;2023-07-20T06:26:47;98810.67;;;24.07;61.88
70488;BME280;57976;48.174;16.370;2023-07-20T06:28:51;98801.82;;;24.09;61.50
70488;BME280;57976;48.174;16.370;2023-07-20T06:31:01;98806.73;;;24.14;61.23
70488;BME280;57976;48.174;16.370;2023-07-20T06:33:06;98807.70;;;24.18;60.94
70488;BME280;57976;48.174;16.370;2023-07-20T06:35:11;98805.49;;;24.18;59.98
70488;BME280;57976;48.174;16.370;2023-07-20T06:37:16;98808.70;;;24.23;60.31
70488;BME280;57976;48.174;16.370;2023-07-20T06:39:21;98811.12;;;24.33;60.37
70488;BME280;57976;48.174;16.370;2023-07-20T06:41:29;98823.89;;;24.39;59.52
70488;BME280;57976;48.174;16.370;2023-07-20T06:43:37;98827.60;;;24.43;58.97
70488;BME280;57976;48.174;16.370;2023-07-20T06:45:45;98831.45;;;24.47;58.30
70488;BME280;57976;48.174;16.370;2023-07-20T06:47:58;98821.82;;;24.47;57.69
70488;BME280;57976;48.174;16.370;2023-07-20T06:50:03;98831.14;;;24.47;57.33
70488;BME280;57976;48.174;16.370;2023-07-20T06:52:08;98820.96;;;24.47;57.63
70488;BME280;57976;48.174;16.370;2023-07-20T06:54:14;98815.62;;;24.52;57.87
70488;BME280;57976;48.174;16.370;2023-07-20T06:56:19;98817.46;;;24.58;57.78
70488;BME280;57976;48.174;16.370;2023-07-20T06:58:28;98820.89;;;24.65;57.61
70488;BME280;57976;48.174;16.370;2023-07-20T07:00:32;98815.95;;;24.70;57.81
70488;BME280;57976;48.174;16.370;2023-07-20T07:02:37;98808.20;;;24.73;57.38
70488;BME280;57976;48.174;16.370;2023-07-20T07:04:43;98809.22;;;24.73;57.52
70488;BME280;57976;48.174;16.370;2023-07-20T07:06:48;98809.23;;;24.77;57.60
70488;BME280;57976;48.174;16.370;2023-07-20T07:08:56;98807.44;;;24.81;57.53
70488;BME280;57976;48.174;16.370;2023-07-20T07:11:01;98810.07;;;24.96;57.40
70488;BME280;57976;48.174;16.370;2023-07-20T07:13:06;98808.08;;;25.02;56.69
70488;BME280;57976;48.174;16.370;2023-07-20T07:15:11;98815.86;;;25.02;56.87
70488;BME280;57976;48.174;16.370;2023-07-20T07:17:16;98818.29;;;24.99;56.96
70488;BME280;57976;48.174;16.370;2023-07-20T07:19:24;98813.42;;;25.00;56.79
70488;BME280;57976;48.174;16.370;2023-07-20T07:21:29;98816.77;;;25.05;56.73
70488;BME280;57976;48.174;16.370;2023-07-20T07:23:41;98812.10;;;25.02;56.84
70488;BME280;57976;48.174;16.370;2023-07-20T07:25:45;98809.23;;;25.04;57.24
70488;BME280;57976;48.174;16.370;2023-07-20T07:27:53;98805.37;;;25.12;57.06
70488;BME280;57976;48.174;16.370;2023-07-20T07:29:57;98815.20;;;25.18;56.44
70488;BME280;57976;48.174;16.370;2023-07-20T07:32:03;98809.81;;;25.14;56.14
70488;BME280;57976;48.174;16.370;2023-07-20T07:34:08;98801.66;;;25.13;55.67
70488;BME280;57976;48.174;16.370;2023-07-20T07:36:13;98805.94;;;25.14;55.80
70488;BME280;57976;48.174;16.370;2023-07-20T07:38:18;98808.21;;;25.21;56.22
70488;BME280;57976;48.174;16.370;2023-07-20T07:40:28;98802.76;;;25.21;56.48
70488;BME280;57976;48.174;16.370;2023-07-20T07:42:32;98806.02;;;25.26;56.22
70488;BME280;57976;48.174;16.370;2023-07-20T07:44:38;98800.80;;;25.25;55.52
70488;BME280;57976;48.174;16.370;2023-07-20T07:46:42;98800.84;;;25.22;55.67
70488;BME280;57976;48.174;16.370;2023-07-20T07:48:48;98804.48;;;25.24;55.60
70488;BME280;57976;48.174;16.370;2023-07-20T07:50:53;98808.77;;;25.26;55.78
70488;BME280;57976;48.174;16.370;2023-07-20T07:52:58;98806.09;;;25.30;56.03
70488;BME280;57976;48.174;16.370;2023-07-20T07:55:03;98807.36;;;25.36;56.13
70488;BME280;57976;48.174;16.370;2023-07-20T07:57:08;98798.33;;;25.45;55.89
70488;BME280;57976;48.174;16.370;2023-07-20T07:59:13;98806.54;;;25.60;55.44
70488;BME280;57976;48.174;16.370;2023-07-20T08:01:18;98806.34;;;25.65;54.55
70488;BME280;57976;48.174;16.370;2023-07-20T08:03:26;98797.91;;;25.67;54.83
70488;BME280;57976;48.174;16.370;2023-07-20T08:05:31;98804.98;;;25.72;54.94
70488;BME280;57976;48.174;16.370;2023-07-20T08:07:36;98800.20;;;25.75;55.13
70488;BME280;57976;48.174;16.370;2023-07-20T08:09:43;98797.56;;;25.80;55.18
70488;BME280;57976;48.174;16.370;2023-07-20T08:11:51;98799.10;;;25.84;55.02
70488;BME280;57976;48.174;16.370;2023-07-20T08:13:56;98799.75;;;25.90;55.15
70488;BME280;57976;48.174;16.370;2023-07-20T08:16:02;98801.83;;;25.91;55.09
70488;BME280;57976;48.174;16.370;2023-07-20T08:18:07;98805.97;;;25.96;54.81
70488;BME280;57976;48.174;16.370;2023-07-20T08:20:14;98806.47;;;26.06;53.73
70488;BME280;57976;48.174;16.370;2023-07-20T08:22:19;98801.52;;;26.16;53.73
70488;BME280;57976;48.174;16.370;2023-07-20T08:24:24;98802.87;;;26.24;53.47
70488;BME280;57976;48.174;16.370;2023-07-20T08:26:29;98805.27;;;26.30;52.92
70488;BME280;57976;48.174;16.370;2023-07-20T08:28:37;98794.42;;;26.31;52.98
70488;BME280;57976;48.174;16.370;2023-07-20T08:30:43;98791.86;;;26.27;53.02
70488;BME280;57976;48.174;16.370;2023-07-20T08:32:48;98790.30;;;26.22;52.88
70488;BME280;57976;48.174;16.370;2023-07-20T08:34:53;98790.80;;;26.16;52.84
70488;BME280;57976;48.174;16.370;2023-07-20T08:36:59;98798.66;;;26.15;52.59
70488;BME280;57976;48.174;16.370;2023-07-20T08:39:05;98805.86;;;26.11;52.75
70488;BME280;57976;48.174;16.370;2023-07-20T08:41:10;98796.34;;;26.05;52.85
70488;BME280;57976;48.174;16.370;2023-07-20T08:43:16;98795.46;;;26.05;53.06
70488;BME280;57976;48.174;16.370;2023-07-20T08:45:23;98795.52;;;26.05;53.07
70488;BME280;57976;48.174;16.370;2023-07-20T08:47:30;98795.88;;;26.06;53.30
70488;BME280;57976;48.174;16.370;2023-07-20T08:49:35;98793.86;;;26.12;53.27
70488;BME280;57976;48.174;16.370;2023-07-20T08:51:42;98791.06;;;26.17;52.79
70488;BME280;57976;48.174;16.370;2023-07-20T08:53:48;98786.65;;;26.13;52.91
70488;BME280;57976;48.174;16.370;2023-07-20T08:55:56;98784.08;;;26.09;52.89
70488;BME280;57976;48.174;16.370;2023-07-20T08:58:05;98788.11;;;26.04;53.12
70488;BME280;57976;48.174;16.370;2023-07-20T09:00:15;98800.58;;;26.04;53.29
70488;BME280;57976;48.174;16.370;2023-07-20T09:02:25;98811.69;;;26.03;52.78
70488;BME280;57976;48.174;16.370;2023-07-20T09:04:32;98814.83;;;26.02;52.90
70488;BME280;57976;48.174;16.370;2023-07-20T09:06:38;98815.36;;;26.06;52.90
70488;BME280;57976;48.174;16.370;2023-07-20T09:08:44;98815.83;;;26.10;52.72
70488;BME280;57976;48.174;16.370;2023-07-20T09:10:50;98808.16;;;26.08;52.44
70488;BME280;57976;48.174;16.370;2023-07-20T09:12:55;98799.89;;;26.04;52.59
70488;BME280;57976;48.174;16.370;2023-07-20T09:15:00;98806.39;;;26.05;52.73
70488;BME280;57976;48.174;16.370;2023-07-20T09:17:05;98799.01;;;26.05;52.59
70488;BME280;57976;48.174;16.370;2023-07-20T09:19:11;98784.30;;;26.10;52.63
70488;BME280;57976;48.174;16.370;2023-07-20T09:21:18;98789.52;;;26.21;52.32
70488;BME280;57976;48.174;16.370;2023-07-20T09:23:31;98796.93;;;26.32;51.70
70488;BME280;57976;48.174;16.370;2023-07-20T09:25:37;98801.02;;;26.36;51.38
70488;BME280;57976;48.174;16.370;2023-07-20T09:27:44;98796.14;;;26.38;51.27
70488;BME280;57976;48.174;16.370;2023-07-20T09:29:53;98796.67;;;26.44;51.24
70488;BME280;57976;48.174;16.370;2023-07-20T09:32:05;98803.93;;;26.51;50.91
70488;BME280;57976;48.174;16.370;2023-07-20T09:34:10;98805.85;;;26.52;49.84
70488;BME280;57976;48.174;16.370;2023-07-20T09:36:38;98801.36;;;26.54;49.47
70488;BME280;57976;48.174;16.370;2023-07-20T09:38:47;98795.88;;;26.58;48.00
70488;BME280;57976;48.174;16.370;2023-07-20T09:40:55;98791.08;;;26.67;47.57
70488;BME280;57976;48.174;16.370;2023-07-20T09:43:02;98798.91;;;26.82;47.40
70488;BME280;57976;48.174;16.370;2023-07-20T09:45:15;98804.54;;;26.98;47.21
70488;BME280;57976;48.174;16.370;2023-07-20T09:47:24;98813.38;;;27.10;46.36
70488;BME280;57976;48.174;16.370;2023-07-20T09:49:32;98817.11;;;27.12;46.38
70488;BME280;57976;48.174;16.370;2023-07-20T09:51:58;98814.57;;;27.10;46.40
70488;BME280;57976;48.174;16.370;2023-07-20T09:54:04;98812.96;;;27.09;46.46
70488;BME280;57976;48.174;16.370;2023-07-20T09:56:10;98807.65;;;27.05;46.28
70488;BME280;57976;48.174;16.370;2023-07-20T09:58:15;98807.52;;;27.04;46.48
70488;BME280;57976;48.174;16.370;2023-07-20T10:00:23;98805.11;;;27.12;46.33
70488;BME280;57976;48.174;16.370;2023-07-20T10:02:34;98808.05;;;27.21;46.19
70488;BME280;57976;48.174;16.370;2023-07-20T10:04:41;98804.02;;;27.25;46.39
70488;BME280;57976;48.174;16.370;2023-07-20T10:06:48;98803.64;;;27.30;46.12
70488;BME280;57976;48.174;16.370;2023-07-20T10:08:58;98817.80;;;27.29;46.11
70488;BME280;57976;48.174;16.370;2023-07-20T10:11:05;98812.33;;;27.31;45.72
70488;BME280;57976;48.174;16.370;2023-07-20T10:13:17;98809.71;;;27.33;45.82
70488;BME280;57976;48.174;16.370;2023-07-20T10:15:33;98812.69;;;27.33;45.60
70488;BME280;57976;48.174;16.370;2023-07-20T10:17:49;98809.55;;;27.28;45.73
70488;BME280;57976;48.174;16.370;2023-07-20T10:20:02;98810.75;;;27.25;45.72
70488;BME280;57976;48.174;16.370;2023-07-20T10:22:13;98819.23;;;27.23;45.76
70488;BME280;57976;48.174;16.370;2023-07-20T10:24:20;98808.82;;;27.24;45.67
70488;BME280;57976;48.174;16.370;2023-07-20T10:26:26;98798.45;;;27.30;45.41
70488;BME280;57976;48.174;16.370;2023-07-20T10:28:31;98797.41;;;27.33;45.00
70488;BME280;57976;48.174;16.370;2023-07-20T10:30:37;98800.61;;;27.36;44.92
70488;BME280;57976;48.174;16.370;2023-07-20T10:32:44;98801.77;;;27.43;44.54
70488;BME280;57976;48.174;16.370;2023-07-20T10:34:57;98808.13;;;27.51;43.81
70488;BME280;57976;48.174;16.370;2023-07-20T10:37:02;98813.75;;;27.51;43.28
70488;BME280;57976;48.174;16.370;2023-07-20T10:39:07;98812.21;;;27.37;43.51
70488;BME280;57976;48.174;16.370;2023-07-20T10:41:33;98799.80;;;27.29;43.97
70488;BME280;57976;48.174;16.370;2023-07-20T10:43:43;98802.70;;;27.31;43.94
70488;BME280;57976;48.174;16.370;2023-07-20T10:45:52;98787.59;;;27.35;43.76
70488;BME280;57976;48.174;16.370;2023-07-20T10:47:57;98799.38;;;27.43;44.10
70488;BME280;57976;48.174;16.370;2023-07-20T10:50:03;98802.46;;;27.49;44.15
70488;BME280;57976;48.174;16.370;2023-07-20T10:52:11;98799.20;;;27.48;44.34
70488;BME280;57976;48.174;16.370;2023-07-20T10:54:34;98800.47;;;27.48;44.42
70488;BME280;57976;48.174;16.370;2023-07-20T10:56:39;98805.98;;;27.48;44.33
70488;BME280;57976;48.174;16.370;2023-07-20T10:58:46;98798.76;;;27.50;43.72
70488;BME280;57976;48.174;16.370;2023-07-20T11:01:05;98786.60;;;27.54;42.90
70488;BME280;57976;48.174;16.370;2023-07-20T11:03:12;98790.33;;;27.58;42.71